HVN5563 VVTS-VVPQ
Flight info
| Callsign | HVN5563 |
|---|---|
| Flight time | 0h 36m |
| Altitude | 22000 |
| Route | BACHU3A BACHU W17 TUNPO TUNPO2C |
| Aircraft | A321/M-SDE3FGHIRWY/LB1 |
Departure
| Time | 2026-04-26 14:35 |
|---|---|
| Airport | Tan Son Nhat International Airport (VVTS) |
Arrival
| Time | 2026-04-26 15:11 |
|---|---|
| Airport | Phú Quốc International Airport (VVPQ) |
| Time | Latitude | Longitude | Altitude | Speed | Heading |
|---|---|---|---|---|---|
| 2026-04-26 13:57 | 10.81394 | 106.66122 | 33 ft | 0 kts | 95° |
| 2026-04-26 14:14 | 10.81395 | 106.66122 | 33 ft | 0 kts | 95° |
| 2026-04-26 14:14 | 10.81395 | 106.66117 | 33 ft | 0 kts | 95° |
| 2026-04-26 14:15 | 10.81396 | 106.66110 | 33 ft | 1 kts | 96° |
| 2026-04-26 14:15 | 10.81396 | 106.66103 | 32 ft | 1 kts | 96° |
| 2026-04-26 14:15 | 10.81397 | 106.66088 | 32 ft | 2 kts | 94° |
| 2026-04-26 14:15 | 10.81399 | 106.66074 | 32 ft | 2 kts | 96° |
| 2026-04-26 14:16 | 10.81400 | 106.66065 | 32 ft | 2 kts | 95° |
| 2026-04-26 14:16 | 10.81398 | 106.66048 | 31 ft | 2 kts | 65° |
| 2026-04-26 14:16 | 10.81390 | 106.66035 | 31 ft | 2 kts | 44° |
| 2026-04-26 14:16 | 10.81377 | 106.66027 | 31 ft | 2 kts | 21° |
| 2026-04-26 14:17 | 10.81368 | 106.66024 | 31 ft | 0 kts | 7° |
| 2026-04-26 14:17 | 10.81361 | 106.66024 | 32 ft | 0 kts | 5° |
| 2026-04-26 14:25 | 10.81372 | 106.66025 | 31 ft | 6 kts | 5° |
| 2026-04-26 14:25 | 10.81431 | 106.66031 | 30 ft | 10 kts | 6° |
| 2026-04-26 14:25 | 10.81508 | 106.66039 | 29 ft | 12 kts | 5° |
| 2026-04-26 14:26 | 10.81600 | 106.66047 | 29 ft | 13 kts | 5° |
| 2026-04-26 14:26 | 10.81702 | 106.66057 | 29 ft | 15 kts | 5° |
| 2026-04-26 14:26 | 10.81813 | 106.66067 | 29 ft | 16 kts | 8° |
| 2026-04-26 14:26 | 10.81886 | 106.66138 | 29 ft | 16 kts | 66° |
| 2026-04-26 14:27 | 10.81926 | 106.66244 | 29 ft | 17 kts | 69° |
| 2026-04-26 14:27 | 10.81968 | 106.66355 | 29 ft | 17 kts | 69° |
| 2026-04-26 14:27 | 10.82010 | 106.66466 | 29 ft | 17 kts | 69° |
| 2026-04-26 14:27 | 10.82047 | 106.66563 | 30 ft | 17 kts | 70° |
| 2026-04-26 14:28 | 10.82083 | 106.66661 | 30 ft | 17 kts | 70° |
| 2026-04-26 14:28 | 10.82126 | 106.66776 | 32 ft | 17 kts | 69° |
| 2026-04-26 14:28 | 10.82171 | 106.66895 | 33 ft | 16 kts | 69° |
| 2026-04-26 14:28 | 10.82223 | 106.67001 | 35 ft | 13 kts | 34° |
| 2026-04-26 14:29 | 10.82283 | 106.66997 | 35 ft | 0 kts | 338° |
| 2026-04-26 14:29 | 10.82286 | 106.66996 | 35 ft | 0 kts | 338° |
| 2026-04-26 14:31 | 10.82294 | 106.66993 | 35 ft | 2 kts | 338° |
| 2026-04-26 14:31 | 10.82318 | 106.66979 | 34 ft | 4 kts | 321° |
| 2026-04-26 14:32 | 10.82351 | 106.66962 | 34 ft | 5 kts | 347° |
| 2026-04-26 14:32 | 10.82364 | 106.66933 | 34 ft | 5 kts | 256° |
| 2026-04-26 14:32 | 10.82357 | 106.66915 | 34 ft | 0 kts | 249° |
| 2026-04-26 14:34 | 10.82357 | 106.66913 | 34 ft | 2 kts | 249° |
| 2026-04-26 14:34 | 10.82289 | 106.66740 | 32 ft | 69 kts | 249° |
| 2026-04-26 14:34 | 10.82093 | 106.66217 | 29 ft | 135 kts | 249° |
| 2026-04-26 14:35 | 10.81295 | 106.64088 | 1008 ft | 184 kts | 246° |
| 2026-04-26 14:35 | 10.80772 | 106.62710 | 2008 ft | 189 kts | 245° |
| 2026-04-26 14:36 | 10.79649 | 106.59811 | 3544 ft | 224 kts | 246° |
| 2026-04-26 14:36 | 10.79063 | 106.58290 | 4228 ft | 243 kts | 248° |
| 2026-04-26 14:36 | 10.78444 | 106.56670 | 4686 ft | 273 kts | 248° |
| 2026-04-26 14:36 | 10.77801 | 106.54981 | 4961 ft | 306 kts | 249° |
| 2026-04-26 14:37 | 10.76986 | 106.52838 | 5002 ft | 348 kts | 249° |
| 2026-04-26 14:37 | 10.76154 | 106.50652 | 4981 ft | 332 kts | 249° |
| 2026-04-26 14:37 | 10.75356 | 106.48550 | 4987 ft | 302 kts | 249° |
| 2026-04-26 14:37 | 10.74628 | 106.46629 | 4957 ft | 282 kts | 249° |
| 2026-04-26 14:38 | 10.73927 | 106.44772 | 4914 ft | 282 kts | 249° |
| 2026-04-26 14:38 | 10.73239 | 106.42956 | 5512 ft | 275 kts | 250° |
| 2026-04-26 14:38 | 10.72533 | 106.41098 | 5800 ft | 283 kts | 250° |
| 2026-04-26 14:38 | 10.72063 | 106.39861 | 6060 ft | 284 kts | 250° |
| 2026-04-26 14:39 | 10.71113 | 106.37358 | 6601 ft | 286 kts | 250° |
| 2026-04-26 14:39 | 10.70387 | 106.35442 | 6974 ft | 289 kts | 250° |
| 2026-04-26 14:39 | 10.69667 | 106.33544 | 7343 ft | 290 kts | 249° |
| 2026-04-26 14:39 | 10.68953 | 106.31668 | 7694 ft | 293 kts | 249° |
| 2026-04-26 14:40 | 10.68265 | 106.29755 | 8042 ft | 294 kts | 251° |
| 2026-04-26 14:40 | 10.67598 | 106.27799 | 8391 ft | 296 kts | 251° |
| 2026-04-26 14:40 | 10.66921 | 106.25798 | 8713 ft | 299 kts | 251° |
| 2026-04-26 14:40 | 10.66248 | 106.23806 | 9037 ft | 301 kts | 251° |
| 2026-04-26 14:41 | 10.65573 | 106.21810 | 9339 ft | 303 kts | 251° |
| 2026-04-26 14:41 | 10.65107 | 106.20435 | 9545 ft | 305 kts | 251° |
| 2026-04-26 14:41 | 10.64178 | 106.17699 | 9952 ft | 307 kts | 251° |
| 2026-04-26 14:41 | 10.63468 | 106.15614 | 10107 ft | 314 kts | 251° |
| 2026-04-26 14:42 | 10.62792 | 106.13625 | 10232 ft | 321 kts | 251° |
| 2026-04-26 14:42 | 10.62057 | 106.11465 | 10354 ft | 327 kts | 251° |
| 2026-04-26 14:42 | 10.61303 | 106.09247 | 10471 ft | 332 kts | 251° |
| 2026-04-26 14:42 | 10.60558 | 106.07055 | 10628 ft | 336 kts | 251° |
| 2026-04-26 14:43 | 10.59797 | 106.04816 | 10836 ft | 337 kts | 251° |
| 2026-04-26 14:43 | 10.59293 | 106.03335 | 10983 ft | 337 kts | 251° |
| 2026-04-26 14:43 | 10.58267 | 106.00326 | 11259 ft | 338 kts | 251° |
| 2026-04-26 14:43 | 10.57461 | 105.98087 | 11460 ft | 339 kts | 250° |
| 2026-04-26 14:44 | 10.56626 | 105.95822 | 11655 ft | 342 kts | 250° |
| 2026-04-26 14:44 | 10.55786 | 105.93548 | 12107 ft | 346 kts | 250° |
| 2026-04-26 14:44 | 10.54951 | 105.91283 | 12658 ft | 347 kts | 250° |
| 2026-04-26 14:44 | 10.54102 | 105.88969 | 13171 ft | 349 kts | 250° |
| 2026-04-26 14:45 | 10.53250 | 105.86646 | 13692 ft | 351 kts | 250° |
| 2026-04-26 14:45 | 10.52680 | 105.85086 | 14044 ft | 352 kts | 250° |
| 2026-04-26 14:45 | 10.51548 | 105.81993 | 14716 ft | 354 kts | 250° |
| 2026-04-26 14:45 | 10.50688 | 105.79645 | 15194 ft | 357 kts | 250° |
| 2026-04-26 14:46 | 10.49818 | 105.77272 | 15652 ft | 359 kts | 250° |
| 2026-04-26 14:46 | 10.49235 | 105.75679 | 15967 ft | 361 kts | 250° |
| 2026-04-26 14:46 | 10.48062 | 105.72480 | 16587 ft | 363 kts | 250° |
| 2026-04-26 14:46 | 10.47185 | 105.70085 | 16999 ft | 366 kts | 250° |
| 2026-04-26 14:47 | 10.46298 | 105.67667 | 17426 ft | 368 kts | 250° |
| 2026-04-26 14:47 | 10.45396 | 105.65205 | 17853 ft | 370 kts | 250° |
| 2026-04-26 14:47 | 10.44551 | 105.62901 | 18220 ft | 373 kts | 250° |
| 2026-04-26 14:47 | 10.43606 | 105.60323 | 18624 ft | 376 kts | 250° |
| 2026-04-26 14:48 | 10.42696 | 105.57841 | 19009 ft | 379 kts | 250° |
| 2026-04-26 14:48 | 10.41770 | 105.55316 | 19391 ft | 381 kts | 250° |
| 2026-04-26 14:48 | 10.40847 | 105.52803 | 19767 ft | 384 kts | 250° |
| 2026-04-26 14:48 | 10.39908 | 105.50252 | 20136 ft | 386 kts | 250° |
| 2026-04-26 14:49 | 10.38968 | 105.47702 | 20492 ft | 389 kts | 250° |
| 2026-04-26 14:49 | 10.38011 | 105.45106 | 20830 ft | 392 kts | 250° |
| 2026-04-26 14:49 | 10.37069 | 105.42548 | 21169 ft | 394 kts | 250° |
| 2026-04-26 14:49 | 10.36116 | 105.39958 | 21516 ft | 396 kts | 250° |
| 2026-04-26 14:50 | 10.35147 | 105.37324 | 21802 ft | 399 kts | 250° |
| 2026-04-26 14:50 | 10.34224 | 105.34818 | 21843 ft | 399 kts | 249° |
| 2026-04-26 14:50 | 10.33235 | 105.32132 | 21848 ft | 398 kts | 249° |
| 2026-04-26 14:50 | 10.32288 | 105.29559 | 21848 ft | 398 kts | 250° |
| 2026-04-26 14:51 | 10.31311 | 105.26904 | 21847 ft | 398 kts | 249° |
| 2026-04-26 14:51 | 10.30345 | 105.24283 | 21850 ft | 398 kts | 249° |
| 2026-04-26 14:51 | 10.29373 | 105.21643 | 21850 ft | 399 kts | 250° |
| 2026-04-26 14:51 | 10.28415 | 105.19044 | 21850 ft | 399 kts | 249° |
| 2026-04-26 14:52 | 10.27437 | 105.16390 | 21851 ft | 399 kts | 249° |
| 2026-04-26 14:52 | 10.26463 | 105.13749 | 21852 ft | 398 kts | 249° |
| 2026-04-26 14:52 | 10.25500 | 105.11137 | 21852 ft | 398 kts | 249° |
| 2026-04-26 14:52 | 10.24542 | 105.08543 | 21850 ft | 397 kts | 249° |
| 2026-04-26 14:53 | 10.23562 | 105.05889 | 21850 ft | 398 kts | 249° |
| 2026-04-26 14:53 | 10.22601 | 105.03288 | 21850 ft | 398 kts | 249° |
| 2026-04-26 14:53 | 10.21628 | 105.00652 | 21848 ft | 398 kts | 250° |
| 2026-04-26 14:53 | 10.20659 | 104.98029 | 21848 ft | 398 kts | 250° |
| 2026-04-26 14:54 | 10.19685 | 104.95391 | 21848 ft | 399 kts | 250° |
| 2026-04-26 14:54 | 10.18722 | 104.92783 | 21851 ft | 399 kts | 249° |
| 2026-04-26 14:54 | 10.17748 | 104.90147 | 21849 ft | 399 kts | 249° |
| 2026-04-26 14:54 | 10.16762 | 104.87481 | 21849 ft | 400 kts | 249° |
| 2026-04-26 14:55 | 10.15790 | 104.84849 | 21846 ft | 400 kts | 249° |
| 2026-04-26 14:55 | 10.14829 | 104.82250 | 21843 ft | 400 kts | 249° |
| 2026-04-26 14:55 | 10.13947 | 104.79864 | 21840 ft | 400 kts | 249° |
| 2026-04-26 14:55 | 10.12968 | 104.77222 | 21839 ft | 400 kts | 249° |
| 2026-04-26 14:56 | 10.11989 | 104.74577 | 21837 ft | 400 kts | 249° |
| 2026-04-26 14:56 | 10.11021 | 104.71961 | 21837 ft | 400 kts | 249° |
| 2026-04-26 14:56 | 10.10052 | 104.69344 | 21835 ft | 398 kts | 249° |
| 2026-04-26 14:56 | 10.09405 | 104.67596 | 21836 ft | 399 kts | 250° |
| 2026-04-26 14:57 | 10.08220 | 104.64394 | 21835 ft | 399 kts | 249° |
| 2026-04-26 14:57 | 10.07196 | 104.61620 | 21835 ft | 399 kts | 251° |
| 2026-04-26 14:57 | 10.06585 | 104.58983 | 21829 ft | 399 kts | 265° |
| 2026-04-26 14:57 | 10.06623 | 104.56339 | 21832 ft | 397 kts | 278° |
| 2026-04-26 14:58 | 10.07108 | 104.53573 | 21841 ft | 397 kts | 282° |
| 2026-04-26 14:58 | 10.07666 | 104.50843 | 21846 ft | 397 kts | 283° |
| 2026-04-26 14:58 | 10.08210 | 104.48171 | 21771 ft | 396 kts | 283° |
| 2026-04-26 14:58 | 10.08753 | 104.45421 | 21191 ft | 400 kts | 282° |
| 2026-04-26 14:59 | 10.09110 | 104.43571 | 20674 ft | 405 kts | 282° |
| 2026-04-26 14:59 | 10.09638 | 104.40778 | 20103 ft | 405 kts | 282° |
| 2026-04-26 14:59 | 10.10335 | 104.37048 | 19542 ft | 400 kts | 282° |
| 2026-04-26 14:59 | 10.10503 | 104.36150 | 19406 ft | 398 kts | 282° |
| 2026-04-26 15:00 | 10.11185 | 104.32497 | 18821 ft | 394 kts | 281° |
| 2026-04-26 15:00 | 10.11862 | 104.28878 | 18236 ft | 389 kts | 282° |
| 2026-04-26 15:00 | 10.12360 | 104.26218 | 17800 ft | 386 kts | 282° |
| 2026-04-26 15:00 | 10.12862 | 104.23541 | 17375 ft | 382 kts | 282° |
| 2026-04-26 15:01 | 10.13339 | 104.20989 | 16952 ft | 380 kts | 281° |
| 2026-04-26 15:01 | 10.13821 | 104.18414 | 16504 ft | 377 kts | 282° |
| 2026-04-26 15:01 | 10.14310 | 104.15803 | 16059 ft | 375 kts | 282° |
| 2026-04-26 15:01 | 10.14781 | 104.13281 | 15866 ft | 364 kts | 282° |
| 2026-04-26 15:02 | 10.15241 | 104.10819 | 15859 ft | 351 kts | 282° |
| 2026-04-26 15:02 | 10.15690 | 104.08420 | 15676 ft | 342 kts | 282° |
| 2026-04-26 15:02 | 10.16128 | 104.06078 | 15375 ft | 337 kts | 282° |
| 2026-04-26 15:02 | 10.16376 | 104.03739 | 15059 ft | 333 kts | 269° |
| 2026-04-26 15:03 | 10.16097 | 104.01423 | 14756 ft | 329 kts | 259° |
| 2026-04-26 15:03 | 10.15631 | 103.99142 | 13850 ft | 343 kts | 258° |
| 2026-04-26 15:03 | 10.15121 | 103.96793 | 12474 ft | 362 kts | 258° |
| 2026-04-26 15:03 | 10.14601 | 103.94369 | 11114 ft | 374 kts | 258° |
| 2026-04-26 15:04 | 10.14062 | 103.91812 | 9874 ft | 377 kts | 258° |
| 2026-04-26 15:04 | 10.13722 | 103.90173 | 9124 ft | 377 kts | 258° |
| 2026-04-26 15:04 | 10.13007 | 103.86716 | 7643 ft | 373 kts | 258° |
| 2026-04-26 15:04 | 10.12510 | 103.84297 | 6860 ft | 362 kts | 258° |
| 2026-04-26 15:05 | 10.12015 | 103.81873 | 6307 ft | 344 kts | 258° |
| 2026-04-26 15:05 | 10.11856 | 103.81091 | 6182 ft | 338 kts | 258° |
| 2026-04-26 15:05 | 10.11528 | 103.77326 | 5283 ft | 317 kts | 283° |
| 2026-04-26 15:05 | 10.12475 | 103.75359 | 4070 ft | 326 kts | 312° |
| 2026-04-26 15:06 | 10.13664 | 103.74384 | 3405 ft | 325 kts | 332° |
| 2026-04-26 15:06 | 10.16531 | 103.73917 | 2457 ft | 312 kts | 12° |
| 2026-04-26 15:06 | 10.18331 | 103.74805 | 2082 ft | 293 kts | 43° |
| 2026-04-26 15:06 | 10.19374 | 103.76463 | 2000 ft | 265 kts | 73° |
| 2026-04-26 15:07 | 10.19449 | 103.79892 | 1997 ft | 238 kts | 103° |
| 2026-04-26 15:07 | 10.19105 | 103.81482 | 1973 ft | 219 kts | 103° |
| 2026-04-26 15:07 | 10.18853 | 103.82805 | 2050 ft | 200 kts | 102° |
| 2026-04-26 15:08 | 10.18640 | 103.84162 | 2007 ft | 184 kts | 100° |
| 2026-04-26 15:08 | 10.18478 | 103.85380 | 1996 ft | 182 kts | 99° |
| 2026-04-26 15:08 | 10.18327 | 103.86639 | 1970 ft | 181 kts | 98° |
| 2026-04-26 15:08 | 10.18190 | 103.87854 | 1814 ft | 166 kts | 99° |
| 2026-04-26 15:09 | 10.18072 | 103.88947 | 1594 ft | 152 kts | 98° |
| 2026-04-26 15:09 | 10.17962 | 103.89993 | 1416 ft | 149 kts | 98° |
| 2026-04-26 15:09 | 10.17854 | 103.91019 | 1239 ft | 148 kts | 98° |
| 2026-04-26 15:09 | 10.17747 | 103.92064 | 1048 ft | 148 kts | 98° |
| 2026-04-26 15:10 | 10.17643 | 103.93084 | 859 ft | 147 kts | 97° |
| 2026-04-26 15:10 | 10.17608 | 103.93428 | 796 ft | 147 kts | 97° |
| 2026-04-26 15:10 | 10.17433 | 103.95110 | 480 ft | 146 kts | 97° |
| 2026-04-26 15:10 | 10.17321 | 103.96124 | 408 ft | 142 kts | 98° |
| 2026-04-26 15:11 | 10.17211 | 103.97120 | 183 ft | 139 kts | 97° |
| 2026-04-26 15:11 | 10.17106 | 103.98095 | 57 ft | 138 kts | 97° |
| 2026-04-26 15:11 | 10.17004 | 103.99068 | 34 ft | 116 kts | 97° |
| 2026-04-26 15:11 | 10.16957 | 103.99577 | 40 ft | 29 kts | 97° |
| 2026-04-26 15:12 | 10.16943 | 103.99721 | 40 ft | 21 kts | 97° |
| 2026-04-26 15:12 | 10.16916 | 103.99872 | 42 ft | 23 kts | 107° |
| 2026-04-26 15:12 | 10.16843 | 104.00022 | 45 ft | 24 kts | 131° |
| 2026-04-26 15:12 | 10.16733 | 104.00056 | 45 ft | 11 kts | 264° |
| 2026-04-26 15:13 | 10.16744 | 104.00008 | 45 ft | 10 kts | 270° |
| 2026-04-26 15:13 | 10.16749 | 103.99914 | 44 ft | 14 kts | 268° |
| 2026-04-26 15:13 | 10.16681 | 103.99860 | 45 ft | 13 kts | 184° |
| 2026-04-26 15:13 | 10.16593 | 103.99853 | 47 ft | 12 kts | 185° |
| 2026-04-26 15:14 | 10.16512 | 103.99857 | 48 ft | 11 kts | 169° |
| 2026-04-26 15:14 | 10.16445 | 103.99855 | 49 ft | 6 kts | 186° |
| 2026-04-26 15:14 | 10.16420 | 103.99853 | 50 ft | 0 kts | 185° |
| 2026-04-26 15:14 | 10.16419 | 103.99853 | 50 ft | 0 kts | 185° |
| 2026-04-26 15:15 | 10.16413 | 103.99852 | 50 ft | 0 kts | 185° |
| 2026-04-26 15:15 | 10.16412 | 103.99852 | 50 ft | 0 kts | 185° |